sensor_id;sensor_type;location;lat;lon;timestamp;P1;durP1;ratioP1;P2;durP2;ratioP2
51981;SDS011;37998;53.416;6.730;2023-08-07T00:00:42;14.68;;;3.55;;
51981;SDS011;37998;53.416;6.730;2023-08-07T00:03:07;11.70;;;3.20;;
51981;SDS011;37998;53.416;6.730;2023-08-07T00:05:34;21.30;;;4.05;;
51981;SDS011;37998;53.416;6.730;2023-08-07T00:08:00;5.88;;;1.98;;
51981;SDS011;37998;53.416;6.730;2023-08-07T00:10:28;6.13;;;2.00;;
51981;SDS011;37998;53.416;6.730;2023-08-07T00:12:55;2.45;;;1.55;;
51981;SDS011;37998;53.416;6.730;2023-08-07T00:15:21;1.65;;;1.35;;
51981;SDS011;37998;53.416;6.730;2023-08-07T00:17:47;3.92;;;1.50;;
51981;SDS011;37998;53.416;6.730;2023-08-07T00:20:13;2.85;;;1.70;;
51981;SDS011;37998;53.416;6.730;2023-08-07T00:22:39;3.03;;;1.63;;
51981;SDS011;37998;53.416;6.730;2023-08-07T00:25:15;5.05;;;1.65;;
51981;SDS011;37998;53.416;6.730;2023-08-07T00:27:40;9.13;;;2.33;;
51981;SDS011;37998;53.416;6.730;2023-08-07T00:30:07;3.92;;;2.15;;
51981;SDS011;37998;53.416;6.730;2023-08-07T00:32:33;4.70;;;2.60;;
51981;SDS011;37998;53.416;6.730;2023-08-07T00:35:00;5.25;;;2.35;;
51981;SDS011;37998;53.416;6.730;2023-08-07T00:37:26;8.35;;;2.95;;
51981;SDS011;37998;53.416;6.730;2023-08-07T00:39:51;6.18;;;3.17;;
51981;SDS011;37998;53.416;6.730;2023-08-07T00:42:21;9.95;;;3.53;;
51981;SDS011;37998;53.416;6.730;2023-08-07T00:44:47;11.20;;;4.05;;
51981;SDS011;37998;53.416;6.730;2023-08-07T00:47:13;6.82;;;2.75;;
51981;SDS011;37998;53.416;6.730;2023-08-07T00:49:39;11.48;;;3.10;;
51981;SDS011;37998;53.416;6.730;2023-08-07T00:52:05;9.10;;;2.50;;
51981;SDS011;37998;53.416;6.730;2023-08-07T00:54:32;5.25;;;2.25;;
51981;SDS011;37998;53.416;6.730;2023-08-07T00:57:00;4.70;;;1.95;;
51981;SDS011;37998;53.416;6.730;2023-08-07T00:59:35;5.82;;;2.30;;
51981;SDS011;37998;53.416;6.730;2023-08-07T01:02:04;5.75;;;2.35;;
51981;SDS011;37998;53.416;6.730;2023-08-07T01:04:30;6.55;;;2.30;;
51981;SDS011;37998;53.416;6.730;2023-08-07T01:06:56;7.97;;;2.88;;
51981;SDS011;37998;53.416;6.730;2023-08-07T01:09:24;5.03;;;2.08;;
51981;SDS011;37998;53.416;6.730;2023-08-07T01:12:02;4.65;;;2.40;;
51981;SDS011;37998;53.416;6.730;2023-08-07T01:17:37;5.75;;;2.78;;
51981;SDS011;37998;53.416;6.730;2023-08-07T01:20:07;6.80;;;2.80;;
51981;SDS011;37998;53.416;6.730;2023-08-07T01:22:34;4.93;;;2.75;;
51981;SDS011;37998;53.416;6.730;2023-08-07T01:25:00;5.60;;;2.80;;
51981;SDS011;37998;53.416;6.730;2023-08-07T01:27:36;6.82;;;3.15;;
51981;SDS011;37998;53.416;6.730;2023-08-07T01:32:57;4.97;;;3.00;;
51981;SDS011;37998;53.416;6.730;2023-08-07T01:35:31;5.65;;;2.60;;
51981;SDS011;37998;53.416;6.730;2023-08-07T01:38:02;4.78;;;3.00;;
51981;SDS011;37998;53.416;6.730;2023-08-07T01:40:28;6.40;;;3.40;;
51981;SDS011;37998;53.416;6.730;2023-08-07T01:42:55;3.90;;;2.85;;
51981;SDS011;37998;53.416;6.730;2023-08-07T01:45:24;5.95;;;3.17;;
51981;SDS011;37998;53.416;6.730;2023-08-07T01:47:51;3.60;;;2.60;;
51981;SDS011;37998;53.416;6.730;2023-08-07T01:50:18;5.38;;;2.70;;
51981;SDS011;37998;53.416;6.730;2023-08-07T01:52:46;4.00;;;2.78;;
51981;SDS011;37998;53.416;6.730;2023-08-07T01:55:15;6.00;;;2.90;;
51981;SDS011;37998;53.416;6.730;2023-08-07T01:57:49;5.85;;;3.08;;
51981;SDS011;37998;53.416;6.730;2023-08-07T02:00:15;4.63;;;2.75;;
51981;SDS011;37998;53.416;6.730;2023-08-07T02:02:44;11.02;;;2.47;;
51981;SDS011;37998;53.416;6.730;2023-08-07T02:05:12;5.80;;;2.47;;
51981;SDS011;37998;53.416;6.730;2023-08-07T02:07:39;3.53;;;2.30;;
51981;SDS011;37998;53.416;6.730;2023-08-07T02:10:05;4.18;;;2.30;;
51981;SDS011;37998;53.416;6.730;2023-08-07T02:12:35;4.50;;;2.30;;
51981;SDS011;37998;53.416;6.730;2023-08-07T02:15:01;6.43;;;2.80;;
51981;SDS011;37998;53.416;6.730;2023-08-07T02:17:29;4.68;;;2.40;;
51981;SDS011;37998;53.416;6.730;2023-08-07T02:19:56;7.70;;;2.65;;
51981;SDS011;37998;53.416;6.730;2023-08-07T02:22:22;6.03;;;2.97;;
51981;SDS011;37998;53.416;6.730;2023-08-07T02:24:48;6.80;;;2.90;;
51981;SDS011;37998;53.416;6.730;2023-08-07T02:27:15;6.22;;;2.53;;
51981;SDS011;37998;53.416;6.730;2023-08-07T02:29:40;5.78;;;2.53;;
51981;SDS011;37998;53.416;6.730;2023-08-07T02:32:07;4.82;;;2.50;;
51981;SDS011;37998;53.416;6.730;2023-08-07T02:34:33;9.93;;;2.72;;
51981;SDS011;37998;53.416;6.730;2023-08-07T02:36:59;6.00;;;2.13;;
51981;SDS011;37998;53.416;6.730;2023-08-07T02:39:25;8.07;;;2.33;;
51981;SDS011;37998;53.416;6.730;2023-08-07T02:41:51;5.75;;;2.42;;
51981;SDS011;37998;53.416;6.730;2023-08-07T02:44:17;4.40;;;2.28;;
51981;SDS011;37998;53.416;6.730;2023-08-07T02:46:43;6.47;;;2.30;;
51981;SDS011;37998;53.416;6.730;2023-08-07T02:49:09;10.38;;;2.80;;
51981;SDS011;37998;53.416;6.730;2023-08-07T02:51:36;7.78;;;2.05;;
51981;SDS011;37998;53.416;6.730;2023-08-07T02:54:02;7.20;;;2.13;;
51981;SDS011;37998;53.416;6.730;2023-08-07T02:56:30;7.57;;;2.33;;
51981;SDS011;37998;53.416;6.730;2023-08-07T02:58:56;6.85;;;1.88;;
51981;SDS011;37998;53.416;6.730;2023-08-07T03:01:23;7.55;;;2.58;;
51981;SDS011;37998;53.416;6.730;2023-08-07T03:03:49;7.53;;;1.95;;
51981;SDS011;37998;53.416;6.730;2023-08-07T03:06:15;7.18;;;1.70;;
51981;SDS011;37998;53.416;6.730;2023-08-07T03:08:41;11.13;;;2.33;;
51981;SDS011;37998;53.416;6.730;2023-08-07T03:11:10;10.07;;;1.90;;
51981;SDS011;37998;53.416;6.730;2023-08-07T03:13:36;5.05;;;1.55;;
51981;SDS011;37998;53.416;6.730;2023-08-07T03:16:02;4.78;;;1.50;;
51981;SDS011;37998;53.416;6.730;2023-08-07T03:18:30;3.70;;;1.20;;
51981;SDS011;37998;53.416;6.730;2023-08-07T03:20:56;3.47;;;1.33;;
51981;SDS011;37998;53.416;6.730;2023-08-07T03:23:22;9.80;;;1.70;;
51981;SDS011;37998;53.416;6.730;2023-08-07T03:25:49;6.65;;;1.60;;
51981;SDS011;37998;53.416;6.730;2023-08-07T03:28:16;9.23;;;2.15;;
51981;SDS011;37998;53.416;6.730;2023-08-07T03:30:43;9.82;;;2.47;;
51981;SDS011;37998;53.416;6.730;2023-08-07T03:33:11;6.30;;;2.60;;
51981;SDS011;37998;53.416;6.730;2023-08-07T03:35:40;10.82;;;2.63;;
51981;SDS011;37998;53.416;6.730;2023-08-07T03:38:07;11.93;;;2.97;;
51981;SDS011;37998;53.416;6.730;2023-08-07T03:40:33;7.82;;;3.05;;
51981;SDS011;37998;53.416;6.730;2023-08-07T03:42:59;9.65;;;2.88;;
51981;SDS011;37998;53.416;6.730;2023-08-07T03:45:25;12.93;;;3.00;;
51981;SDS011;37998;53.416;6.730;2023-08-07T03:47:54;9.70;;;3.00;;
51981;SDS011;37998;53.416;6.730;2023-08-07T03:50:20;10.35;;;3.38;;
51981;SDS011;37998;53.416;6.730;2023-08-07T03:52:49;14.85;;;4.18;;
51981;SDS011;37998;53.416;6.730;2023-08-07T03:55:21;15.38;;;3.92;;
51981;SDS011;37998;53.416;6.730;2023-08-07T03:57:47;20.75;;;4.43;;
51981;SDS011;37998;53.416;6.730;2023-08-07T04:00:15;10.45;;;4.00;;
51981;SDS011;37998;53.416;6.730;2023-08-07T04:02:40;15.13;;;4.07;;
51981;SDS011;37998;53.416;6.730;2023-08-07T04:05:09;11.52;;;3.90;;
51981;SDS011;37998;53.416;6.730;2023-08-07T04:07:36;14.02;;;3.55;;
51981;SDS011;37998;53.416;6.730;2023-08-07T04:10:02;16.05;;;3.88;;
51981;SDS011;37998;53.416;6.730;2023-08-07T04:12:28;14.88;;;4.80;;
51981;SDS011;37998;53.416;6.730;2023-08-07T04:14:54;13.43;;;4.40;;
51981;SDS011;37998;53.416;6.730;2023-08-07T04:17:20;14.18;;;3.20;;
51981;SDS011;37998;53.416;6.730;2023-08-07T04:19:45;13.38;;;3.63;;
51981;SDS011;37998;53.416;6.730;2023-08-07T04:22:11;9.35;;;3.40;;
51981;SDS011;37998;53.416;6.730;2023-08-07T04:24:37;13.20;;;3.42;;
51981;SDS011;37998;53.416;6.730;2023-08-07T04:27:03;15.27;;;3.47;;
51981;SDS011;37998;53.416;6.730;2023-08-07T04:29:30;13.55;;;3.53;;
51981;SDS011;37998;53.416;6.730;2023-08-07T04:31:56;14.45;;;3.72;;
51981;SDS011;37998;53.416;6.730;2023-08-07T04:34:23;13.23;;;3.63;;
51981;SDS011;37998;53.416;6.730;2023-08-07T04:36:49;21.13;;;5.18;;
51981;SDS011;37998;53.416;6.730;2023-08-07T04:39:17;12.35;;;3.92;;
51981;SDS011;37998;53.416;6.730;2023-08-07T04:41:44;9.90;;;3.00;;
51981;SDS011;37998;53.416;6.730;2023-08-07T04:44:09;6.78;;;2.30;;
51981;SDS011;37998;53.416;6.730;2023-08-07T04:46:35;11.48;;;3.22;;
51981;SDS011;37998;53.416;6.730;2023-08-07T04:49:01;11.68;;;2.58;;
51981;SDS011;37998;53.416;6.730;2023-08-07T04:51:28;7.55;;;2.70;;
51981;SDS011;37998;53.416;6.730;2023-08-07T04:53:55;12.55;;;3.63;;
51981;SDS011;37998;53.416;6.730;2023-08-07T04:56:22;17.27;;;4.28;;
51981;SDS011;37998;53.416;6.730;2023-08-07T04:58:48;19.67;;;5.00;;
51981;SDS011;37998;53.416;6.730;2023-08-07T05:01:13;15.55;;;4.43;;
51981;SDS011;37998;53.416;6.730;2023-08-07T05:03:43;18.98;;;4.43;;
51981;SDS011;37998;53.416;6.730;2023-08-07T05:06:09;20.80;;;4.63;;
51981;SDS011;37998;53.416;6.730;2023-08-07T05:08:35;9.68;;;3.65;;
51981;SDS011;37998;53.416;6.730;2023-08-07T05:11:00;15.57;;;3.55;;
51981;SDS011;37998;53.416;6.730;2023-08-07T05:13:26;18.50;;;4.30;;
51981;SDS011;37998;53.416;6.730;2023-08-07T05:15:55;14.07;;;5.35;;
51981;SDS011;37998;53.416;6.730;2023-08-07T05:18:21;22.90;;;4.35;;
51981;SDS011;37998;53.416;6.730;2023-08-07T05:20:47;19.58;;;3.67;;
51981;SDS011;37998;53.416;6.730;2023-08-07T05:23:13;13.35;;;4.00;;
51981;SDS011;37998;53.416;6.730;2023-08-07T05:25:39;13.90;;;3.75;;
51981;SDS011;37998;53.416;6.730;2023-08-07T05:28:05;13.10;;;3.53;;
51981;SDS011;37998;53.416;6.730;2023-08-07T05:30:31;10.98;;;4.05;;
51981;SDS011;37998;53.416;6.730;2023-08-07T05:32:57;13.25;;;4.00;;
51981;SDS011;37998;53.416;6.730;2023-08-07T05:35:23;17.13;;;3.70;;
51981;SDS011;37998;53.416;6.730;2023-08-07T05:37:49;14.25;;;3.38;;
51981;SDS011;37998;53.416;6.730;2023-08-07T05:40:15;13.00;;;4.10;;
51981;SDS011;37998;53.416;6.730;2023-08-07T05:42:41;13.48;;;3.97;;
51981;SDS011;37998;53.416;6.730;2023-08-07T05:45:07;14.32;;;3.58;;
51981;SDS011;37998;53.416;6.730;2023-08-07T05:47:35;16.55;;;4.68;;
51981;SDS011;37998;53.416;6.730;2023-08-07T05:50:01;15.68;;;3.70;;
51981;SDS011;37998;53.416;6.730;2023-08-07T05:52:27;14.35;;;3.72;;
51981;SDS011;37998;53.416;6.730;2023-08-07T05:54:53;16.33;;;3.70;;
51981;SDS011;37998;53.416;6.730;2023-08-07T05:57:26;12.48;;;3.00;;
51981;SDS011;37998;53.416;6.730;2023-08-07T05:59:52;8.75;;;2.90;;
51981;SDS011;37998;53.416;6.730;2023-08-07T06:02:18;11.27;;;3.05;;
51981;SDS011;37998;53.416;6.730;2023-08-07T06:04:44;9.15;;;2.80;;
51981;SDS011;37998;53.416;6.730;2023-08-07T06:07:13;10.70;;;3.40;;
51981;SDS011;37998;53.416;6.730;2023-08-07T06:09:39;12.32;;;4.28;;
51981;SDS011;37998;53.416;6.730;2023-08-07T06:12:05;12.93;;;3.38;;
51981;SDS011;37998;53.416;6.730;2023-08-07T06:14:31;11.55;;;3.65;;
51981;SDS011;37998;53.416;6.730;2023-08-07T06:16:57;11.32;;;3.78;;
51981;SDS011;37998;53.416;6.730;2023-08-07T06:19:27;12.75;;;4.47;;
51981;SDS011;37998;53.416;6.730;2023-08-07T06:21:53;16.60;;;4.10;;
51981;SDS011;37998;53.416;6.730;2023-08-07T06:24:19;13.20;;;3.65;;
51981;SDS011;37998;53.416;6.730;2023-08-07T06:26:45;15.88;;;3.92;;
51981;SDS011;37998;53.416;6.730;2023-08-07T06:29:11;16.48;;;4.25;;
51981;SDS011;37998;53.416;6.730;2023-08-07T06:31:37;14.35;;;4.00;;
51981;SDS011;37998;53.416;6.730;2023-08-07T06:34:03;12.25;;;3.50;;
51981;SDS011;37998;53.416;6.730;2023-08-07T06:36:29;14.25;;;4.00;;
51981;SDS011;37998;53.416;6.730;2023-08-07T06:38:55;15.82;;;3.70;;
51981;SDS011;37998;53.416;6.730;2023-08-07T06:41:21;17.40;;;3.92;;
51981;SDS011;37998;53.416;6.730;2023-08-07T06:43:47;11.80;;;3.55;;
51981;SDS011;37998;53.416;6.730;2023-08-07T06:46:13;17.48;;;5.43;;
51981;SDS011;37998;53.416;6.730;2023-08-07T06:48:42;12.45;;;2.90;;
51981;SDS011;37998;53.416;6.730;2023-08-07T06:51:08;12.93;;;2.95;;
51981;SDS011;37998;53.416;6.730;2023-08-07T06:53:34;8.63;;;2.90;;
51981;SDS011;37998;53.416;6.730;2023-08-07T06:55:59;11.20;;;3.00;;
51981;SDS011;37998;53.416;6.730;2023-08-07T06:58:25;13.20;;;3.00;;
51981;SDS011;37998;53.416;6.730;2023-08-07T07:00:51;8.90;;;2.95;;
51981;SDS011;37998;53.416;6.730;2023-08-07T07:03:17;11.10;;;3.03;;
51981;SDS011;37998;53.416;6.730;2023-08-07T07:05:43;14.02;;;3.03;;
51981;SDS011;37998;53.416;6.730;2023-08-07T07:08:09;10.07;;;3.47;;
51981;SDS011;37998;53.416;6.730;2023-08-07T07:10:35;14.55;;;3.25;;
51981;SDS011;37998;53.416;6.730;2023-08-07T07:13:04;9.70;;;3.30;;
51981;SDS011;37998;53.416;6.730;2023-08-07T07:15:30;10.10;;;2.95;;
51981;SDS011;37998;53.416;6.730;2023-08-07T07:17:56;9.20;;;2.63;;
51981;SDS011;37998;53.416;6.730;2023-08-07T07:20:22;9.93;;;3.03;;
51981;SDS011;37998;53.416;6.730;2023-08-07T07:22:48;10.63;;;3.50;;
51981;SDS011;37998;53.416;6.730;2023-08-07T07:25:14;6.38;;;2.40;;
51981;SDS011;37998;53.416;6.730;2023-08-07T07:27:40;21.77;;;3.78;;
51981;SDS011;37998;53.416;6.730;2023-08-07T07:30:06;11.25;;;2.58;;
51981;SDS011;37998;53.416;6.730;2023-08-07T07:32:33;10.93;;;3.08;;
51981;SDS011;37998;53.416;6.730;2023-08-07T07:34:59;10.15;;;3.33;;
51981;SDS011;37998;53.416;6.730;2023-08-07T07:37:26;9.40;;;2.67;;
51981;SDS011;37998;53.416;6.730;2023-08-07T07:39:55;8.02;;;2.70;;
51981;SDS011;37998;53.416;6.730;2023-08-07T07:42:21;8.05;;;3.00;;
51981;SDS011;37998;53.416;6.730;2023-08-07T07:44:47;9.73;;;2.83;;
51981;SDS011;37998;53.416;6.730;2023-08-07T07:47:13;10.38;;;2.90;;
51981;SDS011;37998;53.416;6.730;2023-08-07T07:49:44;7.47;;;3.20;;
51981;SDS011;37998;53.416;6.730;2023-08-07T07:52:11;8.93;;;3.10;;
51981;SDS011;37998;53.416;6.730;2023-08-07T07:54:37;11.63;;;3.22;;
51981;SDS011;37998;53.416;6.730;2023-08-07T07:57:03;12.63;;;2.92;;
51981;SDS011;37998;53.416;6.730;2023-08-07T07:59:30;7.30;;;2.60;;
51981;SDS011;37998;53.416;6.730;2023-08-07T08:01:55;12.30;;;3.80;;
51981;SDS011;37998;53.416;6.730;2023-08-07T08:04:21;12.15;;;3.90;;
51981;SDS011;37998;53.416;6.730;2023-08-07T08:06:49;8.45;;;3.78;;
51981;SDS011;37998;53.416;6.730;2023-08-07T08:09:14;12.95;;;4.03;;
51981;SDS011;37998;53.416;6.730;2023-08-07T08:11:41;11.60;;;3.20;;
51981;SDS011;37998;53.416;6.730;2023-08-07T08:14:06;16.60;;;3.75;;
51981;SDS011;37998;53.416;6.730;2023-08-07T08:16:32;7.95;;;3.15;;
51981;SDS011;37998;53.416;6.730;2023-08-07T08:18:58;12.23;;;4.05;;
51981;SDS011;37998;53.416;6.730;2023-08-07T08:21:24;11.25;;;4.10;;
51981;SDS011;37998;53.416;6.730;2023-08-07T08:23:50;18.67;;;4.40;;
51981;SDS011;37998;53.416;6.730;2023-08-07T08:26:16;12.60;;;3.50;;
51981;SDS011;37998;53.416;6.730;2023-08-07T08:28:42;9.55;;;3.45;;
51981;SDS011;37998;53.416;6.730;2023-08-07T08:31:08;17.33;;;4.40;;
51981;SDS011;37998;53.416;6.730;2023-08-07T08:33:36;14.93;;;3.60;;
51981;SDS011;37998;53.416;6.730;2023-08-07T08:36:03;12.07;;;3.50;;
51981;SDS011;37998;53.416;6.730;2023-08-07T08:38:29;8.82;;;2.78;;
51981;SDS011;37998;53.416;6.730;2023-08-07T08:40:58;11.43;;;3.47;;
51981;SDS011;37998;53.416;6.730;2023-08-07T08:43:26;10.63;;;3.03;;
51981;SDS011;37998;53.416;6.730;2023-08-07T08:45:53;10.93;;;3.95;;
51981;SDS011;37998;53.416;6.730;2023-08-07T08:48:20;14.75;;;3.33;;
51981;SDS011;37998;53.416;6.730;2023-08-07T08:50:49;15.15;;;3.90;;
51981;SDS011;37998;53.416;6.730;2023-08-07T08:53:18;14.50;;;4.03;;
51981;SDS011;37998;53.416;6.730;2023-08-07T08:55:46;16.25;;;4.28;;
51981;SDS011;37998;53.416;6.730;2023-08-07T08:58:14;9.05;;;3.40;;
51981;SDS011;37998;53.416;6.730;2023-08-07T09:00:41;10.82;;;3.15;;
51981;SDS011;37998;53.416;6.730;2023-08-07T09:03:08;9.98;;;2.85;;
51981;SDS011;37998;53.416;6.730;2023-08-07T09:05:34;9.05;;;3.03;;
51981;SDS011;37998;53.416;6.730;2023-08-07T09:08:02;19.00;;;3.33;;
51981;SDS011;37998;53.416;6.730;2023-08-07T09:10:28;8.70;;;3.20;;
51981;SDS011;37998;53.416;6.730;2023-08-07T09:13:00;12.38;;;3.45;;
51981;SDS011;37998;53.416;6.730;2023-08-07T09:17:55;13.63;;;3.58;;
51981;SDS011;37998;53.416;6.730;2023-08-07T09:20:21;10.02;;;3.63;;
51981;SDS011;37998;53.416;6.730;2023-08-07T09:22:48;13.77;;;3.35;;
51981;SDS011;37998;53.416;6.730;2023-08-07T09:25:14;10.05;;;2.50;;
51981;SDS011;37998;53.416;6.730;2023-08-07T09:27:51;10.75;;;3.20;;
51981;SDS011;37998;53.416;6.730;2023-08-07T09:30:17;14.18;;;3.40;;
51981;SDS011;37998;53.416;6.730;2023-08-07T09:32:43;8.82;;;2.58;;
51981;SDS011;37998;53.416;6.730;2023-08-07T09:35:20;6.85;;;2.20;;
51981;SDS011;37998;53.416;6.730;2023-08-07T09:37:46;11.20;;;3.03;;
51981;SDS011;37998;53.416;6.730;2023-08-07T09:40:15;9.95;;;2.97;;
51981;SDS011;37998;53.416;6.730;2023-08-07T09:42:42;10.18;;;2.88;;
51981;SDS011;37998;53.416;6.730;2023-08-07T09:45:23;9.38;;;2.30;;
51981;SDS011;37998;53.416;6.730;2023-08-07T09:48:04;7.38;;;2.65;;
51981;SDS011;37998;53.416;6.730;2023-08-07T09:50:33;13.07;;;3.85;;
51981;SDS011;37998;53.416;6.730;2023-08-07T09:52:59;7.13;;;2.97;;
51981;SDS011;37998;53.416;6.730;2023-08-07T09:55:26;11.45;;;2.85;;
51981;SDS011;37998;53.416;6.730;2023-08-07T09:57:52;16.50;;;3.33;;
51981;SDS011;37998;53.416;6.730;2023-08-07T10:00:19;11.77;;;3.35;;
51981;SDS011;37998;53.416;6.730;2023-08-07T10:02:46;11.38;;;2.92;;
51981;SDS011;37998;53.416;6.730;2023-08-07T10:05:13;11.65;;;3.97;;
51981;SDS011;37998;53.416;6.730;2023-08-07T10:07:46;11.63;;;2.97;;
51981;SDS011;37998;53.416;6.730;2023-08-07T10:10:13;13.45;;;2.92;;
51981;SDS011;37998;53.416;6.730;2023-08-07T10:12:45;10.90;;;3.17;;
51981;SDS011;37998;53.416;6.730;2023-08-07T10:15:14;10.32;;;3.22;;
51981;SDS011;37998;53.416;6.730;2023-08-07T10:17:40;16.00;;;3.75;;
51981;SDS011;37998;53.416;6.730;2023-08-07T10:20:06;10.82;;;3.40;;
51981;SDS011;37998;53.416;6.730;2023-08-07T10:22:33;12.38;;;3.55;;
51981;SDS011;37998;53.416;6.730;2023-08-07T10:25:03;11.70;;;2.90;;
51981;SDS011;37998;53.416;6.730;2023-08-07T10:27:33;6.72;;;2.70;;
51981;SDS011;37998;53.416;6.730;2023-08-07T10:30:03;10.73;;;2.70;;
51981;SDS011;37998;53.416;6.730;2023-08-07T10:32:32;13.18;;;3.05;;
51981;SDS011;37998;53.416;6.730;2023-08-07T10:35:02;11.43;;;3.35;;
51981;SDS011;37998;53.416;6.730;2023-08-07T10:37:39;9.80;;;2.95;;
51981;SDS011;37998;53.416;6.730;2023-08-07T10:40:08;14.20;;;3.95;;
51981;SDS011;37998;53.416;6.730;2023-08-07T10:42:51;13.68;;;3.55;;
51981;SDS011;37998;53.416;6.730;2023-08-07T10:45:20;16.60;;;3.22;;
51981;SDS011;37998;53.416;6.730;2023-08-07T10:50:30;8.88;;;2.67;;
51981;SDS011;37998;53.416;6.730;2023-08-07T10:53:03;10.13;;;2.80;;
51981;SDS011;37998;53.416;6.730;2023-08-07T10:55:45;10.82;;;2.50;;
51981;SDS011;37998;53.416;6.730;2023-08-07T10:58:21;8.82;;;2.60;;
51981;SDS011;37998;53.416;6.730;2023-08-07T11:03:58;9.55;;;2.78;;
51981;SDS011;37998;53.416;6.730;2023-08-07T11:06:27;7.35;;;2.65;;
51981;SDS011;37998;53.416;6.730;2023-08-07T11:08:58;8.52;;;2.65;;
51981;SDS011;37998;53.416;6.730;2023-08-07T11:11:24;8.32;;;2.17;;
51981;SDS011;37998;53.416;6.730;2023-08-07T11:13:52;7.50;;;2.60;;
51981;SDS011;37998;53.416;6.730;2023-08-07T11:16:18;8.73;;;2.53;;
51981;SDS011;37998;53.416;6.730;2023-08-07T11:18:48;10.60;;;3.05;;
51981;SDS011;37998;53.416;6.730;2023-08-07T11:21:15;12.90;;;3.03;;
51981;SDS011;37998;53.416;6.730;2023-08-07T11:23:43;7.47;;;2.63;;
51981;SDS011;37998;53.416;6.730;2023-08-07T11:26:11;8.68;;;3.00;;
51981;SDS011;37998;53.416;6.730;2023-08-07T11:28:37;10.82;;;2.97;;
51981;SDS011;37998;53.416;6.730;2023-08-07T11:31:03;8.32;;;2.75;;
51981;SDS011;37998;53.416;6.730;2023-08-07T11:33:29;5.95;;;2.30;;
51981;SDS011;37998;53.416;6.730;2023-08-07T11:35:56;9.40;;;3.08;;
51981;SDS011;37998;53.416;6.730;2023-08-07T11:38:38;6.47;;;2.70;;
51981;SDS011;37998;53.416;6.730;2023-08-07T11:41:14;7.13;;;2.30;;
51981;SDS011;37998;53.416;6.730;2023-08-07T11:43:42;6.63;;;2.65;;
51981;SDS011;37998;53.416;6.730;2023-08-07T11:46:12;6.97;;;2.83;;
51981;SDS011;37998;53.416;6.730;2023-08-07T11:48:39;16.30;;;4.03;;
51981;SDS011;37998;53.416;6.730;2023-08-07T11:51:08;8.40;;;2.35;;
51981;SDS011;37998;53.416;6.730;2023-08-07T11:53:35;9.43;;;2.45;;
51981;SDS011;37998;53.416;6.730;2023-08-07T11:56:06;8.20;;;2.47;;
51981;SDS011;37998;53.416;6.730;2023-08-07T11:58:43;9.38;;;2.20;;
51981;SDS011;37998;53.416;6.730;2023-08-07T12:01:12;9.30;;;2.55;;
51981;SDS011;37998;53.416;6.730;2023-08-07T12:03:49;8.15;;;2.80;;
51981;SDS011;37998;53.416;6.730;2023-08-07T12:06:15;7.43;;;2.50;;
51981;SDS011;37998;53.416;6.730;2023-08-07T12:08:41;5.68;;;2.40;;
51981;SDS011;37998;53.416;6.730;2023-08-07T12:11:09;6.07;;;2.70;;
51981;SDS011;37998;53.416;6.730;2023-08-07T12:13:38;12.70;;;2.60;;
51981;SDS011;37998;53.416;6.730;2023-08-07T12:16:06;7.38;;;2.30;;
51981;SDS011;37998;53.416;6.730;2023-08-07T12:18:34;9.20;;;3.20;;
51981;SDS011;37998;53.416;6.730;2023-08-07T12:21:02;9.30;;;2.70;;
51981;SDS011;37998;53.416;6.730;2023-08-07T12:23:32;9.35;;;2.58;;
51981;SDS011;37998;53.416;6.730;2023-08-07T12:25:58;9.35;;;2.60;;
51981;SDS011;37998;53.416;6.730;2023-08-07T12:28:25;12.77;;;2.70;;
51981;SDS011;37998;53.416;6.730;2023-08-07T12:30:51;10.23;;;3.35;;
51981;SDS011;37998;53.416;6.730;2023-08-07T12:33:18;7.75;;;2.33;;
51981;SDS011;37998;53.416;6.730;2023-08-07T12:35:44;6.88;;;2.78;;
51981;SDS011;37998;53.416;6.730;2023-08-07T12:38:10;10.38;;;2.45;;
51981;SDS011;37998;53.416;6.730;2023-08-07T12:40:42;7.72;;;2.30;;
51981;SDS011;37998;53.416;6.730;2023-08-07T12:43:08;6.50;;;2.40;;
51981;SDS011;37998;53.416;6.730;2023-08-07T12:45:37;16.45;;;3.92;;
51981;SDS011;37998;53.416;6.730;2023-08-07T12:48:03;11.30;;;3.47;;
51981;SDS011;37998;53.416;6.730;2023-08-07T12:50:30;13.65;;;3.10;;
51981;SDS011;37998;53.416;6.730;2023-08-07T12:52:56;12.13;;;2.72;;
51981;SDS011;37998;53.416;6.730;2023-08-07T12:55:22;8.73;;;3.25;;
51981;SDS011;37998;53.416;6.730;2023-08-07T12:57:48;13.13;;;2.85;;
51981;SDS011;37998;53.416;6.730;2023-08-07T13:00:15;11.95;;;3.00;;
51981;SDS011;37998;53.416;6.730;2023-08-07T13:02:42;14.18;;;3.22;;
51981;SDS011;37998;53.416;6.730;2023-08-07T13:05:09;6.20;;;2.47;;
51981;SDS011;37998;53.416;6.730;2023-08-07T13:07:39;9.70;;;3.10;;
51981;SDS011;37998;53.416;6.730;2023-08-07T13:10:05;7.45;;;3.33;;
51981;SDS011;37998;53.416;6.730;2023-08-07T13:12:36;8.35;;;2.83;;
51981;SDS011;37998;53.416;6.730;2023-08-07T13:15:03;13.20;;;3.88;;
51981;SDS011;37998;53.416;6.730;2023-08-07T13:17:31;9.65;;;2.75;;
51981;SDS011;37998;53.416;6.730;2023-08-07T13:19:57;10.10;;;2.97;;
51981;SDS011;37998;53.416;6.730;2023-08-07T13:22:24;9.75;;;3.00;;
51981;SDS011;37998;53.416;6.730;2023-08-07T13:24:50;7.40;;;3.00;;
51981;SDS011;37998;53.416;6.730;2023-08-07T13:27:16;7.78;;;2.72;;
51981;SDS011;37998;53.416;6.730;2023-08-07T13:29:43;9.65;;;3.33;;
51981;SDS011;37998;53.416;6.730;2023-08-07T13:32:09;15.73;;;3.65;;
51981;SDS011;37998;53.416;6.730;2023-08-07T13:34:36;10.10;;;3.60;;
51981;SDS011;37998;53.416;6.730;2023-08-07T13:37:04;12.95;;;3.30;;
51981;SDS011;37998;53.416;6.730;2023-08-07T13:39:30;15.73;;;3.60;;
51981;SDS011;37998;53.416;6.730;2023-08-07T13:41:56;10.88;;;3.28;;
51981;SDS011;37998;53.416;6.730;2023-08-07T13:44:23;15.35;;;4.00;;
51981;SDS011;37998;53.416;6.730;2023-08-07T13:46:49;12.70;;;3.00;;
51981;SDS011;37998;53.416;6.730;2023-08-07T13:49:15;12.82;;;3.63;;
51981;SDS011;37998;53.416;6.730;2023-08-07T13:51:42;9.13;;;3.15;;
51981;SDS011;37998;53.416;6.730;2023-08-07T13:54:08;16.83;;;4.07;;
51981;SDS011;37998;53.416;6.730;2023-08-07T13:56:34;11.55;;;3.25;;
51981;SDS011;37998;53.416;6.730;2023-08-07T13:59:00;11.70;;;3.78;;
51981;SDS011;37998;53.416;6.730;2023-08-07T14:01:26;13.52;;;3.90;;
51981;SDS011;37998;53.416;6.730;2023-08-07T14:03:53;9.40;;;3.30;;
51981;SDS011;37998;53.416;6.730;2023-08-07T14:06:19;11.90;;;4.15;;
51981;SDS011;37998;53.416;6.730;2023-08-07T14:08:46;7.03;;;3.25;;
51981;SDS011;37998;53.416;6.730;2023-08-07T14:11:12;10.60;;;3.67;;
51981;SDS011;37998;53.416;6.730;2023-08-07T14:13:46;8.63;;;2.90;;
51981;SDS011;37998;53.416;6.730;2023-08-07T14:16:12;11.73;;;2.60;;
51981;SDS011;37998;53.416;6.730;2023-08-07T14:18:38;6.63;;;2.85;;
51981;SDS011;37998;53.416;6.730;2023-08-07T14:21:04;12.55;;;3.33;;
51981;SDS011;37998;53.416;6.730;2023-08-07T14:23:30;10.68;;;3.15;;
51981;SDS011;37998;53.416;6.730;2023-08-07T14:25:56;13.20;;;2.85;;
51981;SDS011;37998;53.416;6.730;2023-08-07T14:28:22;8.52;;;2.63;;
51981;SDS011;37998;53.416;6.730;2023-08-07T14:30:48;12.57;;;2.97;;
51981;SDS011;37998;53.416;6.730;2023-08-07T14:33:14;8.55;;;2.90;;
51981;SDS011;37998;53.416;6.730;2023-08-07T14:35:40;8.52;;;2.70;;
51981;SDS011;37998;53.416;6.730;2023-08-07T14:38:06;10.05;;;2.67;;
51981;SDS011;37998;53.416;6.730;2023-08-07T14:40:32;12.63;;;3.22;;
51981;SDS011;37998;53.416;6.730;2023-08-07T14:42:58;8.45;;;2.65;;
51981;SDS011;37998;53.416;6.730;2023-08-07T14:45:28;10.50;;;2.83;;
51981;SDS011;37998;53.416;6.730;2023-08-07T14:47:53;8.90;;;2.72;;
51981;SDS011;37998;53.416;6.730;2023-08-07T14:50:19;10.73;;;2.80;;
51981;SDS011;37998;53.416;6.730;2023-08-07T14:52:45;8.70;;;3.00;;
51981;SDS011;37998;53.416;6.730;2023-08-07T14:55:11;11.48;;;2.83;;